Time;durP1;ratioP1;P1;durP2;ratioP2;P2;SDS_P1;SDS_P2;PMS_P1;PMS_P2;Temp;Humidity;BMP_temperature;BMP_pressure;BME280_temperature;BME280_humidity;BME280_pressure;Samples;Min_cycle;Max_cycle;Signal;HPM_P1;HPM_P2
2021/11/24 00:02:16;;;;;;;;;0.00;0.00;;;;;5.41;72.57;102244.03;5063653;28;45244;-83
2021/11/24 00:04:41;;;;;;;;;1.25;1.25;;;;;5.66;72.81;102271.16;5063429;28;45293;-82
2021/11/24 00:07:07;;;;;;;;;3.50;1.00;;;;;5.62;72.71;102260.59;5064276;28;45145;-83
2021/11/24 00:09:32;;;;;;;;;1.25;1.00;;;;;5.40;73.10;102231.03;5046497;28;47167;-83
2021/11/24 00:11:57;;;;;;;;;1.50;1.00;;;;;5.47;72.77;102239.97;5046020;28;45253;-83
2021/11/24 00:14:23;;;;;;;;;3.00;2.00;;;;;5.29;72.57;102213.25;5045761;28;45404;-83
2021/11/24 00:16:48;;;;;;;;;1.75;1.00;;;;;5.41;72.49;102204.38;5062869;28;45161;-83
2021/11/24 00:19:14;;;;;;;;;0.25;0.25;;;;;5.48;72.73;102216.81;5063774;28;45739;-83
2021/11/24 00:21:39;;;;;;;;;2.25;2.00;;;;;5.76;72.72;102256.16;5063317;28;45419;-80
2021/11/24 00:24:04;;;;;;;;;2.50;2.00;;;;;5.77;72.52;102261.41;5063735;28;46475;-81
2021/11/24 00:26:30;;;;;;;;;2.00;1.50;;;;;5.69;72.28;102242.91;5078202;28;45363;-80
2021/11/24 00:28:55;;;;;;;;;1.00;1.00;;;;;5.55;72.36;102213.75;5062641;28;45282;-81
2021/11/24 00:31:21;;;;;;;;;1.00;1.00;;;;;5.60;72.93;102232.06;5061984;28;45292;-80
2021/11/24 00:33:46;;;;;;;;;2.00;2.00;;;;;5.66;72.30;102241.84;5082446;28;45382;-80
2021/11/24 00:36:12;;;;;;;;;1.25;1.00;;;;;5.56;72.47;102223.28;5083203;28;45381;-80
2021/11/24 00:38:37;;;;;;;;;2.00;2.00;;;;;5.59;72.70;102225.16;5082380;28;45959;-80
2021/11/24 00:41:02;;;;;;;;;1.75;1.00;;;;;5.79;72.52;102248.56;5082804;28;45401;-81
2021/11/24 00:43:27;;;;;;;;;2.00;2.00;;;;;5.60;72.26;102223.47;5082480;28;45302;-80
2021/11/24 00:45:54;;;;;;;;;2.00;1.75;;;;;5.73;72.80;102250.84;5082858;28;45379;-80
2021/11/24 00:48:20;;;;;;;;;3.00;1.00;;;;;5.58;72.67;102229.41;5081944;28;46412;-80
2021/11/24 00:50:46;;;;;;;;;3.50;2.00;;;;;5.48;72.40;102209.06;5082569;28;45195;-80
2021/11/24 00:53:11;;;;;;;;;0.00;0.00;;;;;5.28;72.86;102172.75;5082641;28;45466;-80
2021/11/24 00:55:37;;;;;;;;;1.00;1.00;;;;;5.66;72.37;102226.34;5098543;27;45483;-81
2021/11/24 00:58:03;;;;;;;;;0.00;0.00;;;;;5.60;71.83;102218.28;5082595;28;45268;-80
2021/11/24 01:00:28;;;;;;;;;1.00;1.00;;;;;5.55;72.80;102208.56;5082317;28;45328;-80
2021/11/24 01:02:53;;;;;;;;;2.00;2.00;;;;;5.69;72.29;102242.00;5082733;28;45216;-81
2021/11/24 01:05:19;;;;;;;;;1.00;1.00;;;;;5.49;72.48;102209.97;5082955;28;45577;-81
2021/11/24 01:07:45;;;;;;;;;3.75;2.75;;;;;5.50;72.45;102214.31;5081305;28;47641;-79
2021/11/24 01:10:12;;;;;;;;;1.00;1.00;;;;;5.44;72.58;102209.72;5082186;28;45290;-81
2021/11/24 01:12:39;;;;;;;;;1.00;1.00;;;;;5.41;73.23;102210.44;5082683;28;45578;-81
2021/11/24 01:15:05;;;;;;;;;0.50;0.50;;;;;5.40;72.61;102213.84;5082596;28;45398;-81
2021/11/24 01:17:31;;;;;;;;;1.50;1.50;;;;;5.36;72.79;102211.00;5082111;28;45315;-80
2021/11/24 01:19:56;;;;;;;;;1.00;1.00;;;;;5.28;73.30;102195.09;5098308;27;45216;-82
2021/11/24 01:22:22;;;;;;;;;1.00;1.00;;;;;5.17;72.93;102182.47;5098928;27;45320;-82
2021/11/24 01:24:47;;;;;;;;;1.00;0.50;;;;;5.20;73.08;102181.75;5083470;28;45595;-82
2021/11/24 01:27:13;;;;;;;;;2.75;1.00;;;;;5.44;73.33;102207.13;5099844;27;47579;-84
2021/11/24 01:29:38;;;;;;;;;0.00;0.00;;;;;5.14;73.02;102155.59;5087238;28;45244;-82
2021/11/24 01:32:05;;;;;;;;;1.00;1.00;;;;;5.22;72.82;102168.94;5080811;28;45145;-82
2021/11/24 01:34:30;;;;;;;;;1.00;1.00;;;;;5.40;72.79;102200.03;5065636;28;45334;-82
2021/11/24 01:36:55;;;;;;;;;2.00;0.00;;;;;5.44;73.23;102204.53;5067264;28;47152;-83
2021/11/24 01:39:21;;;;;;;;;2.00;0.75;;;;;5.20;73.42;102154.25;5068191;28;45244;-81
2021/11/24 01:41:46;;;;;;;;;2.00;1.00;;;;;5.22;73.50;102161.19;5083297;28;45270;-82
2021/11/24 01:44:23;;;;;;;;;1.00;1.00;;;;;5.37;73.37;102181.78;5066123;28;45357;-82
2021/11/24 01:46:54;;;;;;;;;2.00;0.75;;;;;5.51;73.09;102201.47;5065839;28;45684;-82
2021/11/24 01:49:22;;;;;;;;;1.75;1.75;;;;;5.58;73.26;102202.72;5066080;28;45311;-81
2021/11/24 01:51:47;;;;;;;;;0.00;0.00;;;;;5.42;72.83;102170.88;5049319;28;45343;-81
2021/11/24 01:54:14;;;;;;;;;1.25;1.25;;;;;5.51;73.10;102183.41;5065902;28;45291;-81
2021/11/24 01:56:40;;;;;;;;;1.00;1.00;;;;;5.39;72.53;102152.63;5066162;28;46178;-81
2021/11/24 01:59:09;;;;;;;;;1.25;1.25;;;;;5.61;72.56;102187.38;5059585;28;45528;-82
2021/11/24 02:01:35;;;;;;;;;0.75;0.75;;;;;5.32;72.51;102137.63;5065753;28;45364;-82
2021/11/24 02:04:00;;;;;;;;;1.00;1.00;;;;;5.62;72.53;102190.81;5066493;28;45267;-82
2021/11/24 02:06:25;;;;;;;;;1.00;1.00;;;;;5.41;72.62;102163.06;5065218;28;45415;-82
2021/11/24 02:08:51;;;;;;;;;0.75;0.75;;;;;5.56;72.72;102188.81;5065291;28;45353;-83
2021/11/24 02:11:16;;;;;;;;;1.75;1.75;;;;;5.51;73.12;102182.53;5066923;28;45573;-82
2021/11/24 02:13:41;;;;;;;;;2.00;1.75;;;;;5.48;72.89;102169.44;5065959;28;45315;-82
2021/11/24 02:16:06;;;;;;;;;0.00;0.00;;;;;5.35;72.99;102155.88;5066295;28;45370;-82
2021/11/24 02:18:32;;;;;;;;;0.25;0.25;;;;;5.43;72.82;102164.03;5064653;28;45356;-83
2021/11/24 02:20:57;;;;;;;;;0.50;0.50;;;;;5.32;72.63;102150.53;5049226;28;45366;-82
2021/11/24 02:23:23;;;;;;;;;2.75;2.75;;;;;5.18;72.94;102139.50;5063485;28;45342;-82
2021/11/24 02:25:48;;;;;;;;;2.00;0.25;;;;;4.92;73.03;102106.31;5066372;28;46064;-83
2021/11/24 02:28:14;;;;;;;;;1.50;0.00;;;;;5.22;72.37;102146.59;5065036;28;45274;-82
2021/11/24 02:30:40;;;;;;;;;1.25;1.25;;;;;5.15;72.85;102137.63;5064163;28;45268;-84
2021/11/24 02:33:05;;;;;;;;;2.00;2.00;;;;;5.21;72.74;102142.25;5063994;28;45220;-82
2021/11/24 02:35:31;;;;;;;;;2.50;2.50;;;;;5.25;72.67;102151.91;5066640;28;45350;-82
2021/11/24 02:37:57;;;;;;;;;3.75;1.00;;;;;5.09;73.33;102124.41;5063254;28;45327;-82
2021/11/24 02:40:29;;;;;;;;;2.50;1.00;;;;;5.28;73.23;102157.25;5047308;28;45260;-82
2021/11/24 02:42:54;;;;;;;;;1.50;1.00;;;;;5.04;72.98;102115.50;5065058;28;45280;-82
2021/11/24 02:45:20;;;;;;;;;3.00;1.00;;;;;5.07;73.21;102120.84;5065678;28;46133;-82
2021/11/24 02:47:45;;;;;;;;;2.75;1.00;;;;;5.30;73.06;102150.47;5064950;28;45336;-83
2021/11/24 02:50:10;;;;;;;;;2.50;0.75;;;;;5.20;73.16;102138.75;5065475;28;45433;-82
2021/11/24 02:52:36;;;;;;;;;1.75;1.75;;;;;5.25;73.33;102133.84;5065313;28;45257;-83
2021/11/24 02:55:04;;;;;;;;;0.00;0.00;;;;;5.12;73.35;102109.06;5064039;28;48621;-84
2021/11/24 02:57:31;;;;;;;;;1.50;1.25;;;;;5.23;72.57;102122.53;5046841;28;45316;-83
2021/11/24 02:59:56;;;;;;;;;2.00;1.00;;;;;5.31;72.69;102135.88;5065218;28;45407;-82
2021/11/24 03:02:22;;;;;;;;;1.50;1.00;;;;;5.28;72.86;102139.19;5064993;28;45304;-83
2021/11/24 03:04:47;;;;;;;;;1.50;1.50;;;;;5.09;72.82;102106.34;5064612;28;47425;-82
2021/11/24 03:07:12;;;;;;;;;1.00;1.00;;;;;5.12;72.72;102128.84;5046297;28;45549;-82
2021/11/24 03:09:38;;;;;;;;;2.00;2.00;;;;;5.12;73.52;102128.84;5064678;28;45377;-82
2021/11/24 03:12:04;;;;;;;;;1.75;1.00;;;;;5.10;73.00;102121.00;5065885;28;45393;-82
2021/11/24 03:14:29;;;;;;;;;1.50;1.00;;;;;4.78;72.91;102082.31;5064290;28;45239;-82
2021/11/24 03:16:55;;;;;;;;;1.00;1.00;;;;;4.60;72.89;102045.22;5063683;28;45302;-82
2021/11/24 03:19:20;;;;;;;;;1.75;1.75;;;;;4.85;73.20;102078.41;5064409;28;45363;-83
2021/11/24 03:21:46;;;;;;;;;2.25;0.75;;;;;5.11;72.97;102106.41;5065542;28;45166;-83
2021/11/24 03:24:11;;;;;;;;;1.00;1.00;;;;;4.61;72.84;102034.09;5045492;28;46393;-83
2021/11/24 03:26:37;;;;;;;;;2.00;2.00;;;;;4.84;72.80;102052.50;5065517;28;45291;-82
2021/11/24 03:29:02;;;;;;;;;1.75;1.50;;;;;5.07;72.94;102090.75;5046835;28;45245;-83
2021/11/24 03:31:28;;;;;;;;;1.00;1.00;;;;;4.86;72.71;102054.34;5065876;28;45606;-82
2021/11/24 03:33:53;;;;;;;;;0.25;0.25;;;;;5.02;73.20;102076.69;5062492;28;47605;-83
2021/11/24 03:36:19;;;;;;;;;2.00;2.00;;;;;4.60;72.96;102012.59;5065008;28;45211;-82
2021/11/24 03:38:44;;;;;;;;;1.25;1.00;;;;;5.14;72.71;102104.88;5064173;28;45331;-82
2021/11/24 03:41:10;;;;;;;;;1.00;1.00;;;;;5.02;72.87;102083.59;5065206;28;45568;-82
2021/11/24 03:43:35;;;;;;;;;1.00;1.00;;;;;5.07;72.85;102092.44;5063887;28;46081;-82
2021/11/24 03:46:00;;;;;;;;;4.00;0.50;;;;;5.12;73.24;102095.28;5064772;28;45319;-82
2021/11/24 03:48:27;;;;;;;;;2.75;1.00;;;;;4.82;73.07;102044.69;5063757;28;45380;-82
2021/11/24 03:50:53;;;;;;;;;1.50;1.50;;;;;4.84;72.93;102042.19;5046332;28;45456;-82
2021/11/24 03:53:19;;;;;;;;;2.00;0.75;;;;;4.78;73.00;102041.03;5046287;28;47275;-82
2021/11/24 03:55:44;;;;;;;;;2.50;2.00;;;;;4.97;73.03;102074.69;5062588;28;45588;-82
2021/11/24 03:58:10;;;;;;;;;0.75;0.75;;;;;5.02;72.78;102084.44;5064811;28;45295;-82
2021/11/24 04:00:36;;;;;;;;;2.00;0.50;;;;;4.95;73.00;102069.44;5063982;28;45480;-82
2021/11/24 04:03:02;;;;;;;;;2.50;2.50;;;;;4.96;73.10;102060.03;5064222;28;46260;-82
2021/11/24 04:05:27;;;;;;;;;1.00;1.00;;;;;4.84;72.99;102043.06;5062001;28;45374;-82
2021/11/24 04:07:53;;;;;;;;;2.25;1.50;;;;;4.81;72.83;102043.78;5062258;28;45671;-82
2021/11/24 04:10:19;;;;;;;;;0.50;0.50;;;;;4.91;73.34;102068.41;5061488;28;45429;-82
2021/11/24 04:12:45;;;;;;;;;2.00;0.25;;;;;4.86;73.38;102069.84;5061705;28;46962;-82
2021/11/24 04:15:14;;;;;;;;;0.50;0.50;;;;;4.74;73.42;102054.59;5062881;28;45355;-80
2021/11/24 04:17:39;;;;;;;;;1.00;0.00;;;;;4.70;73.43;102052.66;5046905;28;45329;-82
2021/11/24 04:20:08;;;;;;;;;2.00;2.00;;;;;4.79;73.64;102072.91;5063083;28;45723;-82
2021/11/24 04:22:34;;;;;;;;;0.25;0.25;;;;;4.61;73.19;102034.09;5063347;28;46352;-82
2021/11/24 04:24:59;;;;;;;;;1.75;1.75;;;;;4.57;73.14;102030.47;5045249;28;45408;-82
2021/11/24 04:27:24;;;;;;;;;0.75;0.75;;;;;4.63;73.33;102054.00;5062785;28;45364;-82
2021/11/24 04:29:50;;;;;;;;;1.00;1.00;;;;;4.63;73.49;102050.53;5063761;28;45524;-82
2021/11/24 04:32:17;;;;;;;;;1.00;1.00;;;;;4.67;73.58;102053.38;5070321;28;46121;-82
2021/11/24 04:34:43;;;;;;;;;1.25;0.00;;;;;4.49;73.68;102029.16;5083792;28;45326;-82
2021/11/24 04:37:08;;;;;;;;;1.00;1.00;;;;;4.40;74.02;102008.91;5083953;28;45295;-82
2021/11/24 04:39:34;;;;;;;;;2.00;2.00;;;;;4.63;73.38;102048.84;5084924;28;45316;-82
2021/11/24 04:41:59;;;;;;;;;1.00;1.00;;;;;4.42;73.57;102017.63;5084237;28;45296;-81
2021/11/24 04:44:24;;;;;;;;;1.00;1.00;;;;;4.29;73.21;102006.63;5083832;28;45355;-82
2021/11/24 04:46:50;;;;;;;;;0.00;0.00;;;;;4.49;73.14;102034.31;5083180;28;45392;-82
2021/11/24 04:49:15;;;;;;;;;4.00;1.00;;;;;4.33;74.49;102014.53;5084596;28;45600;-82
2021/11/24 04:51:41;;;;;;;;;1.00;0.00;;;;;4.49;73.74;102042.94;5082751;28;46323;-82
2021/11/24 04:54:06;;;;;;;;;1.00;1.00;;;;;4.50;73.44;102043.84;5083289;28;45286;-82
2021/11/24 04:56:32;;;;;;;;;1.00;1.00;;;;;4.31;74.05;102023.06;5081720;28;45228;-82
2021/11/24 04:59:00;;;;;;;;;0.00;0.00;;;;;4.14;74.41;101990.31;5084209;28;45231;-82
2021/11/24 05:01:26;;;;;;;;;0.75;0.75;;;;;4.23;73.99;101997.69;5083821;28;45335;-82
2021/11/24 05:03:52;;;;;;;;;1.00;1.00;;;;;4.36;74.19;102018.19;5086700;28;45512;-82
2021/11/24 05:06:20;;;;;;;;;1.75;0.75;;;;;4.20;74.01;101990.66;5087189;28;45338;-82
2021/11/24 05:08:45;;;;;;;;;0.00;0.00;;;;;4.27;74.78;102005.66;5086476;28;45232;-82
2021/11/24 05:11:13;;;;;;;;;1.00;1.00;;;;;4.39;74.04;102012.28;5078947;28;46281;-82
2021/11/24 05:13:45;;;;;;;;;0.75;0.00;;;;;4.19;73.70;101975.97;5065286;28;45284;-82
2021/11/24 05:16:10;;;;;;;;;0.50;0.50;;;;;4.33;73.17;101988.75;5061106;28;45316;-82
2021/11/24 05:18:48;;;;;;;;;2.00;2.00;;;;;4.50;73.55;102016.34;5081201;27;45450;-82
2021/11/24 05:21:27;;;;;;;;;1.00;1.00;;;;;4.52;74.22;102026.72;5063679;28;47255;-81
2021/11/24 05:23:53;;;;;;;;;0.25;0.25;;;;;4.47;73.74;102031.63;5066766;28;44832;-82
2021/11/24 05:26:18;;;;;;;;;1.50;1.50;;;;;4.25;73.63;101986.63;5065622;28;45267;-83
2021/11/24 05:28:46;;;;;;;;;2.75;1.25;;;;;4.39;73.38;102004.56;5054881;28;45670;-83
2021/11/24 05:31:11;;;;;;;;;1.00;0.50;;;;;4.32;74.01;101995.63;5067875;28;45971;-81
2021/11/24 05:33:37;;;;;;;;;2.00;1.25;;;;;4.42;74.09;102015.94;5060298;28;45306;-83
2021/11/24 05:36:03;;;;;;;;;0.00;0.00;;;;;4.32;73.54;101993.03;5072675;28;45725;-82
2021/11/24 05:38:29;;;;;;;;;0.50;0.50;;;;;4.44;73.17;102018.56;5076658;28;45257;-82
2021/11/24 05:40:54;;;;;;;;;2.50;1.00;;;;;4.29;74.00;101986.00;5070647;28;45354;-83
2021/11/24 05:43:22;;;;;;;;;1.25;0.75;;;;;4.21;73.66;101966.66;5066686;28;45365;-82
2021/11/24 05:48:16;;;;;;;;;3.00;1.50;;;;;4.45;73.25;102012.63;5065011;28;45245;-84
2021/11/24 05:50:43;;;;;;;;;3.50;2.25;;;;;4.28;73.55;101979.06;5087896;27;46983;-85
2021/11/24 05:53:09;;;;;;;;;0.00;0.00;;;;;4.46;74.04;102010.91;5065856;28;45271;-84
2021/11/24 05:55:35;;;;;;;;;0.00;0.00;;;;;4.07;73.50;101949.56;5072975;28;45224;-84
2021/11/24 05:58:00;;;;;;;;;2.00;0.75;;;;;4.14;73.43;101961.97;5076135;27;45539;-86
2021/11/24 06:00:26;;;;;;;;;2.00;2.00;;;;;4.16;73.89;101970.66;5082814;27;47665;-80
2021/11/24 06:02:51;;;;;;;;;0.50;0.50;;;;;4.07;73.18;101953.00;5085286;27;45895;-80
2021/11/24 06:05:17;;;;;;;;;2.75;2.75;;;;;3.71;73.78;101912.44;5063685;28;45582;-80
2021/11/24 06:07:42;;;;;;;;;1.00;1.00;;;;;4.21;74.30;101991.53;5063907;28;45478;-80
2021/11/24 06:10:09;;;;;;;;;1.50;1.50;;;;;4.21;74.36;101984.69;5062741;28;47444;-82
2021/11/24 06:12:35;;;;;;;;;0.00;0.00;;;;;4.27;73.49;101992.78;5063349;28;45789;-81
2021/11/24 06:15:01;;;;;;;;;3.50;1.50;;;;;3.81;73.96;101906.09;5062401;28;45278;-80
2021/11/24 06:17:26;;;;;;;;;0.75;0.75;;;;;4.18;73.73;101969.06;5062976;28;45523;-80
2021/11/24 06:19:52;;;;;;;;;0.00;0.00;;;;;4.18;74.23;101958.75;5045263;28;48242;-81
2021/11/24 06:22:18;;;;;;;;;0.50;0.50;;;;;4.36;74.15;101991.50;5067767;28;45577;-81
2021/11/24 06:24:43;;;;;;;;;1.00;0.25;;;;;4.36;74.06;101988.91;5061719;28;45387;-81
2021/11/24 06:27:09;;;;;;;;;2.00;1.00;;;;;4.27;73.69;101968.69;5062028;28;45316;-81
2021/11/24 06:29:34;;;;;;;;;3.50;3.00;;;;;4.25;73.75;101965.13;5065312;28;45511;-81
2021/11/24 06:32:00;;;;;;;;;2.00;2.00;;;;;4.09;73.02;101937.63;5065399;28;45397;-82
2021/11/24 06:34:25;;;;;;;;;2.00;1.00;;;;;4.12;73.14;101930.97;5062750;28;45643;-81
2021/11/24 06:36:53;;;;;;;;;1.00;1.00;;;;;4.30;73.04;101964.59;5063667;28;45306;-81
2021/11/24 06:39:19;;;;;;;;;1.00;1.00;;;;;4.29;73.32;101962.78;5062595;28;45424;-81
2021/11/24 06:41:45;;;;;;;;;0.25;0.00;;;;;4.47;72.82;101974.91;5080011;27;45402;-80
2021/11/24 06:44:10;;;;;;;;;1.00;1.00;;;;;4.43;73.13;101966.13;5061033;28;45492;-80
2021/11/24 06:46:36;;;;;;;;;1.75;0.25;;;;;4.42;72.54;101982.41;5063738;28;45383;-81
2021/11/24 06:49:02;;;;;;;;;0.75;0.75;;;;;4.18;73.00;101943.28;5067007;28;46119;-80
2021/11/24 06:51:27;;;;;;;;;0.00;0.00;;;;;4.38;73.30;101988.19;5064025;28;45204;-80
2021/11/24 06:53:52;;;;;;;;;1.50;0.50;;;;;4.09;72.59;101935.94;5071880;28;45178;-80
2021/11/24 06:56:18;;;;;;;;;0.00;0.00;;;;;4.31;73.02;101975.78;5062857;28;45267;-80
2021/11/24 06:58:43;;;;;;;;;0.00;0.00;;;;;4.14;72.84;101959.41;5058674;28;45657;-79
2021/11/24 07:01:08;;;;;;;;;3.00;2.50;;;;;4.04;72.60;101942.50;5061994;28;45347;-83
2021/11/24 07:03:34;;;;;;;;;0.50;0.50;;;;;4.23;73.25;101980.50;5062741;28;45508;-81
2021/11/24 07:05:59;;;;;;;;;0.50;0.25;;;;;3.92;73.00;101919.56;5055878;28;45419;-81
2021/11/24 07:08:25;;;;;;;;;3.50;1.25;;;;;4.24;73.25;101964.25;5062873;28;46297;-82
2021/11/24 07:10:50;;;;;;;;;3.00;2.25;;;;;4.26;73.20;101964.34;5062588;28;45308;-83
2021/11/24 07:13:15;;;;;;;;;1.00;1.00;;;;;4.00;72.45;101918.28;5063196;28;45399;-81
2021/11/24 07:15:41;;;;;;;;;0.75;0.75;;;;;4.25;72.49;101949.66;5062538;28;45353;-82
2021/11/24 07:18:07;;;;;;;;;3.50;3.00;;;;;4.12;72.45;101937.78;5063684;28;45768;-82
2021/11/24 07:20:32;;;;;;;;;3.00;2.50;;;;;4.35;72.75;101969.09;5063464;28;45359;-80
2021/11/24 07:22:58;;;;;;;;;1.00;1.00;;;;;4.11;72.72;101931.78;5063342;28;45465;-80
2021/11/24 07:25:24;;;;;;;;;0.50;0.00;;;;;4.33;72.16;101961.28;5070526;28;45355;-81
2021/11/24 07:27:50;;;;;;;;;0.75;0.75;;;;;4.41;71.80;101967.72;5064583;28;46990;-82
2021/11/24 07:30:18;;;;;;;;;0.25;0.25;;;;;4.16;72.30;101932.00;5039165;28;45489;-80
2021/11/24 07:32:44;;;;;;;;;0.50;0.50;;;;;4.28;72.65;101950.72;5066227;28;45782;-82
2021/11/24 07:35:09;;;;;;;;;1.00;0.00;;;;;4.14;71.95;101931.03;5063447;28;45489;-81
2021/11/24 07:37:35;;;;;;;;;1.25;1.25;;;;;3.66;72.17;101868.38;5043866;28;48226;-82
2021/11/24 07:40:00;;;;;;;;;1.75;0.75;;;;;4.18;71.97;101936.44;5062801;28;45496;-82
2021/11/24 07:42:26;;;;;;;;;2.25;1.25;;;;;4.42;72.43;101961.78;5061510;28;45339;-82
2021/11/24 07:44:51;;;;;;;;;0.50;0.50;;;;;4.18;72.63;101930.41;5064019;28;45411;-81
2021/11/24 07:47:18;;;;;;;;;0.50;0.50;;;;;4.20;72.21;101941.69;5061914;28;45769;-84
2021/11/24 07:49:43;;;;;;;;;0.00;0.00;;;;;4.31;71.98;101966.34;5064660;28;45374;-82
2021/11/24 07:52:08;;;;;;;;;2.00;1.00;;;;;4.16;72.44;101940.63;5064604;28;44875;-81
2021/11/24 07:54:34;;;;;;;;;0.75;0.75;;;;;4.12;72.39;101930.97;5083363;27;45374;-82
2021/11/24 07:56:59;;;;;;;;;3.00;0.00;;;;;3.61;71.73;101849.19;5066455;28;46508;-82
2021/11/24 07:59:25;;;;;;;;;1.50;0.00;;;;;4.28;72.25;101961.03;5075229;27;45558;-82
2021/11/24 08:01:51;;;;;;;;;2.00;1.00;;;;;4.29;72.51;101957.63;5061938;28;45434;-82
2021/11/24 08:04:16;;;;;;;;;0.75;0.75;;;;;4.12;72.52;101919.75;5079954;27;45371;-82
2021/11/24 08:06:42;;;;;;;;;2.25;2.25;;;;;4.39;72.81;101959.03;5061955;28;46703;-81
2021/11/24 08:09:08;;;;;;;;;0.00;0.00;;;;;4.25;71.86;101939.34;5065800;28;45465;-81
2021/11/24 08:11:33;;;;;;;;;0.00;0.00;;;;;4.11;71.96;101928.28;5061385;28;45407;-82
2021/11/24 08:13:59;;;;;;;;;0.25;0.25;;;;;4.19;71.91;101937.31;5080142;27;45207;-83
2021/11/24 08:16:24;;;;;;;;;0.25;0.25;;;;;4.31;72.46;101955.13;5063187;28;45618;-83
2021/11/24 08:18:49;;;;;;;;;0.00;0.00;;;;;4.28;72.85;101942.97;5062665;28;45371;-82
2021/11/24 08:21:15;;;;;;;;;2.75;1.00;;;;;4.28;72.45;101930.09;5064380;28;45418;-83
2021/11/24 08:23:40;;;;;;;;;3.00;0.00;;;;;4.13;72.39;101906.94;5066730;28;46117;-82
2021/11/24 08:26:06;;;;;;;;;3.00;1.00;;;;;4.33;72.78;101927.75;5077667;27;46304;-81
2021/11/24 08:28:31;;;;;;;;;0.50;0.50;;;;;4.39;72.17;101937.50;5058508;28;45475;-82
2021/11/24 08:30:57;;;;;;;;;0.50;0.50;;;;;4.30;72.50;101917.28;5061359;28;45712;-82
2021/11/24 08:33:22;;;;;;;;;0.00;0.00;;;;;4.27;71.88;101899.97;5063477;28;45342;-80
2021/11/24 08:35:48;;;;;;;;;1.00;1.00;;;;;4.41;71.28;101917.88;5062628;28;45492;-80
2021/11/24 08:38:14;;;;;;;;;3.00;0.00;;;;;4.55;72.56;101944.38;5060768;28;45294;-80
2021/11/24 08:40:40;;;;;;;;;1.00;0.00;;;;;4.27;71.53;101893.91;5077984;28;45292;-82
2021/11/24 08:43:05;;;;;;;;;1.00;1.00;;;;;4.27;71.76;101897.38;5072289;27;45503;-79
2021/11/24 08:45:31;;;;;;;;;2.50;1.00;;;;;4.59;71.94;101945.44;5056420;28;45616;-81
2021/11/24 08:47:56;;;;;;;;;0.00;0.00;;;;;4.42;71.73;101909.31;5062281;28;45461;-80
2021/11/24 08:50:22;;;;;;;;;0.00;0.00;;;;;4.66;71.95;101947.53;5063198;28;45599;-82
2021/11/24 08:52:48;;;;;;;;;1.00;0.75;;;;;4.50;71.51;101931.22;5067577;28;45474;-83
2021/11/24 08:55:14;;;;;;;;;0.00;0.00;;;;;4.54;71.63;101933.16;5065822;28;45584;-80
2021/11/24 08:57:40;;;;;;;;;0.00;0.00;;;;;4.52;71.41;101929.63;5066063;28;45477;-82
2021/11/24 09:00:09;;;;;;;;;1.75;1.75;;;;;4.54;72.14;101937.44;5057512;28;45349;-80
2021/11/24 09:02:34;;;;;;;;;1.00;1.00;;;;;4.55;71.67;101934.06;5076878;27;45291;-79
2021/11/24 09:05:01;;;;;;;;;0.75;0.75;;;;;4.38;72.21;101904.81;5061431;28;45344;-78
2021/11/24 09:07:27;;;;;;;;;1.00;1.00;;;;;4.53;71.92;101931.41;5061494;28;46347;-79
2021/11/24 09:09:52;;;;;;;;;0.50;0.50;;;;;4.50;72.50;101927.78;5076153;28;45421;-80
2021/11/24 09:12:17;;;;;;;;;0.50;0.50;;;;;4.51;72.29;101919.22;5061192;28;45434;-79
2021/11/24 09:14:43;;;;;;;;;1.00;1.00;;;;;4.39;72.17;101889.44;5063156;28;45299;-80
2021/11/24 09:17:08;;;;;;;;;2.25;1.50;;;;;4.51;71.49;101916.66;5060454;28;45428;-79
2021/11/24 09:19:34;;;;;;;;;2.75;2.75;;;;;4.33;72.18;101891.66;5060726;28;45531;-78
2021/11/24 09:21:59;;;;;;;;;0.00;0.00;;;;;4.34;72.32;101887.38;5055998;28;45435;-79
2021/11/24 09:24:26;;;;;;;;;1.00;1.00;;;;;4.36;71.69;101891.84;5060816;28;46228;-79
2021/11/24 09:27:03;;;;;;;;;1.50;0.00;;;;;4.24;72.03;101867.97;5061392;28;45326;-79
2021/11/24 09:29:29;;;;;;;;;4.50;1.75;;;;;4.44;71.95;101897.38;5058310;28;46775;-79
2021/11/24 09:31:55;;;;;;;;;0.50;0.00;;;;;4.52;72.30;101905.53;5064723;28;46098;-79
2021/11/24 09:34:22;;;;;;;;;0.00;0.00;;;;;4.50;71.83;101904.56;5060024;28;46338;-80
2021/11/24 09:36:48;;;;;;;;;1.75;1.50;;;;;4.46;71.76;101889.72;5059820;28;45521;-79
2021/11/24 09:39:13;;;;;;;;;0.00;0.00;;;;;4.34;72.15;101883.13;5041421;28;45386;-78
2021/11/24 09:41:43;;;;;;;;;1.00;0.25;;;;;4.43;71.57;101890.44;5060872;28;45437;-79
2021/11/24 09:44:08;;;;;;;;;0.25;0.25;;;;;4.50;71.85;101900.28;5059827;28;45441;-79
2021/11/24 09:46:34;;;;;;;;;0.00;0.00;;;;;4.42;71.89;101879.28;5060537;28;45418;-78
2021/11/24 09:49:03;;;;;;;;;6.50;2.25;;;;;4.49;71.53;101890.78;5069333;28;45271;-79
2021/11/24 09:51:31;;;;;;;;;0.00;0.00;;;;;4.44;72.06;101880.22;5063606;28;45567;-78
2021/11/24 09:53:59;;;;;;;;;0.50;0.50;;;;;4.56;71.39;101895.44;5061886;28;46030;-78
2021/11/24 09:56:25;;;;;;;;;1.25;1.00;;;;;4.59;72.37;101891.28;5058580;28;45715;-79
2021/11/24 09:58:50;;;;;;;;;1.00;1.00;;;;;4.42;72.17;101857.75;5061607;28;45475;-81
2021/11/24 10:01:15;;;;;;;;;1.75;1.00;;;;;4.62;72.39;101879.41;5066712;28;45555;-81
2021/11/24 10:03:41;;;;;;;;;0.25;0.25;;;;;4.87;71.75;101892.69;5063900;28;45550;-81
2021/11/24 10:06:09;;;;;;;;;0.00;0.00;;;;;4.67;71.65;101839.28;5068048;28;45224;-79
2021/11/24 10:08:35;;;;;;;;;2.25;2.00;;;;;4.95;71.40;101883.63;5063667;28;45386;-79
2021/11/24 10:11:01;;;;;;;;;1.00;1.00;;;;;4.80;71.17;101863.09;5063527;28;45374;-79
2021/11/24 10:13:27;;;;;;;;;4.00;0.50;;;;;4.94;71.80;101881.88;5067881;28;46297;-79
2021/11/24 10:15:56;;;;;;;;;0.25;0.25;;;;;4.90;71.74;101873.06;5063527;28;45378;-78
2021/11/24 10:18:26;;;;;;;;;1.00;1.00;;;;;4.73;71.44;101830.94;5062352;28;45462;-77
2021/11/24 10:21:03;;;;;;;;;0.25;0.25;;;;;5.00;71.55;101883.88;5069035;28;45517;-78
2021/11/24 10:23:33;;;;;;;;;0.00;0.00;;;;;4.95;71.35;101857.81;5064252;28;47292;-80
2021/11/24 10:26:23;;;;;;;;;1.00;1.00;;;;;5.10;71.37;101872.28;5069270;28;45403;-80
2021/11/24 10:29:05;;;;;;;;;0.50;0.00;;;;;5.16;71.22;101858.00;5060420;28;45326;-80
2021/11/24 10:31:50;;;;;;;;;1.00;1.00;;;;;4.99;71.53;101823.59;5068242;28;45497;-79
2021/11/24 10:34:26;;;;;;;;;1.00;1.00;;;;;5.12;71.15;101829.38;5068336;28;45296;-78
2021/11/24 10:37:06;;;;;;;;;0.25;0.25;;;;;5.36;71.16;101845.16;5071017;28;45377;-79
2021/11/24 10:39:36;;;;;;;;;2.25;0.75;;;;;5.48;71.12;101846.56;5062053;28;45656;-79
2021/11/24 10:42:12;;;;;;;;;0.75;0.75;;;;;5.42;70.88;101823.94;5062460;28;45600;-79
2021/11/24 10:44:41;;;;;;;;;0.00;0.00;;;;;5.60;70.67;101843.69;5063158;28;45340;-78
2021/11/24 10:47:07;;;;;;;;;0.00;0.00;;;;;5.59;70.17;101835.03;5077479;28;45385;-81
2021/11/24 10:49:43;;;;;;;;;2.00;0.00;;;;;5.65;70.22;101824.09;5065183;28;45367;-77
2021/11/24 10:52:14;;;;;;;;;3.00;0.50;;;;;5.72;70.32;101822.72;5062175;28;45621;-78
2021/11/24 10:54:41;;;;;;;;;3.50;1.25;;;;;5.83;70.09;101829.25;5066064;28;45481;-79
2021/11/24 10:57:12;;;;;;;;;0.75;0.75;;;;;5.84;70.14;101815.50;5065498;28;45472;-79
2021/11/24 10:59:40;;;;;;;;;1.75;1.00;;;;;5.95;69.91;101806.53;5040520;28;45521;-78
2021/11/24 11:02:21;;;;;;;;;3.00;2.00;;;;;6.00;69.14;101790.38;5063059;28;45481;-78
2021/11/24 11:05:11;;;;;;;;;2.00;2.00;;;;;5.95;69.69;101793.59;5064365;28;45600;-79
2021/11/24 11:07:48;;;;;;;;;0.00;0.00;;;;;6.00;69.64;101788.63;5072169;28;45559;-79
2021/11/24 11:10:20;;;;;;;;;2.00;1.00;;;;;5.87;69.56;101757.88;5074311;27;45324;-80
2021/11/24 11:12:47;;;;;;;;;3.50;1.00;;;;;6.05;69.47;101791.47;5061133;28;45178;-78
2021/11/24 11:15:15;;;;;;;;;1.00;1.00;;;;;5.96;69.56;101764.38;5069421;28;45515;-79
2021/11/24 11:17:49;;;;;;;;;0.75;0.00;;;;;6.08;70.17;101771.81;5074973;28;45413;-78
2021/11/24 11:20:14;;;;;;;;;2.00;2.00;;;;;6.20;69.92;101776.66;5059015;28;45425;-79
2021/11/24 11:22:40;;;;;;;;;2.25;1.25;;;;;6.17;69.21;101739.41;5062934;28;45656;-79
2021/11/24 11:25:06;;;;;;;;;2.00;0.75;;;;;6.35;69.53;101734.16;5060345;28;45992;-79
2021/11/24 11:27:33;;;;;;;;;2.00;2.00;;;;;6.45;68.66;101738.88;5067306;28;45286;-79
2021/11/24 11:30:00;;;;;;;;;1.00;1.00;;;;;6.08;69.15;101673.56;5048242;28;45483;-82
2021/11/24 11:32:26;;;;;;;;;2.75;1.75;;;;;6.41;69.17;101733.53;5062086;28;45348;-79
2021/11/24 11:34:52;;;;;;;;;2.25;1.00;;;;;6.36;69.17;101720.38;5077045;27;45984;-81